College Park, MD

11:55 AM EST on December 12, 2019 (GMT -0500)
College Park

Weather History for KCGS - October, 2019

Change the Weather History Date:

Friday, October 11, 2019

  Actual Average Record
Temperature  
Mean Temperature 59 °F -  
Max Temperature 73 °F 67 °F 87 °F (1954)
Min Temperature 45 °F 47 °F 31 °F (1956)
Degree Days  
Heating Degree Days 6    
Growing Degree Days 9 (Base 50)    
Moisture  
Dew Point 40 °F    
Average Humidity 53    
Maximum Humidity 82    
Minimum Humidity 28    
Precipitation  
Precipitation 0.00 in - - ()
Sea Level Pressure  
Sea Level Pressure 30.11 in    
Wind  
Wind Speed 2 mph (North)    
Max Wind Speed 9 mph    
Max Gust Speed -    
Visibility 10 miles    
Events      
Averages and records for this station are not official NWS values.
T = Trace of Precipitation, MM = Missing Value Source: NWS Daily Summary

Daily Weather History Graph

Daily Weather History Graph

Search for Another Location

Airport or City:

Astronomy

Oct. 11, 2019 Rise Set
Actual Time 7:12 AM EDT 6:35 PM EDT
Civil Twilight 6:46 AM EDT 7:02 PM EDT
Nautical Twilight 6:15 AM EDT 7:32 PM EDT
Astronomical Twilight 5:44 AM EDT 8:03 PM EDT
Moon 6:02 PM EDT (10/11) 4:53 AM EDT (10/11)
Length of Visible Light 12h 15m
Length of Day
11h 22m
Waxing Gibbous, 96% of the Moon is Illuminated
Oct 11
Waxing Gibbous
Oct 13
Full
Oct 21
Last Quarter
Oct 27
New
Nov 4
First Quarter

Hourly Weather History & Observations

Time (EDT) Temp. Dew Point Humidity Pressure Visibility Wind Dir Wind Speed Gust Speed Precip Events Conditions
12:03 AM 58.3 °F 48.7 °F 71% 30.17 in 10.0 mi Calm Calm - N/A   Clear
12:23 AM 56.5 °F 49.3 °F 77% 30.16 in 10.0 mi Calm Calm - N/A   Clear
12:43 AM 58.3 °F 45.0 °F 61% 30.16 in 10.0 mi Calm Calm - N/A   Clear
1:03 AM 58.6 °F 43.9 °F 58% 30.15 in 10.0 mi Calm Calm - N/A   Clear
1:23 AM 54.7 °F 45.1 °F 70% 30.15 in 10.0 mi Calm Calm - N/A   Clear
1:43 AM 52.7 °F 44.6 °F 74% 30.15 in 10.0 mi Calm Calm - N/A   Clear
2:23 AM 51.3 °F 44.1 °F 76% 30.15 in 10.0 mi Calm Calm - N/A   Clear
2:43 AM 50.9 °F 43.5 °F 76% 30.15 in 10.0 mi Calm Calm - N/A   Clear
3:03 AM 50.0 °F 44.6 °F 82% 30.16 in 10.0 mi Calm Calm - N/A   Clear
3:23 AM 49.3 °F 43.9 °F 82% 30.16 in 10.0 mi Calm Calm - N/A   Clear
3:43 AM 49.1 °F 43.0 °F 79% 30.15 in 10.0 mi Calm Calm - N/A   Clear
4:03 AM 49.1 °F 43.7 °F 82% 30.16 in 10.0 mi Calm Calm - N/A   Clear
4:23 AM 47.8 °F 41.9 °F 80% 30.15 in 10.0 mi Calm Calm - N/A   Clear
4:43 AM 47.5 °F 42.1 °F 82% 30.15 in 10.0 mi Calm Calm - N/A   Clear
5:03 AM 47.8 °F 42.6 °F 82% 30.15 in 10.0 mi Calm Calm - N/A   Clear
5:23 AM 47.5 °F 41.4 °F 79% 30.15 in 10.0 mi Calm Calm - N/A   Clear
5:43 AM 47.5 °F 40.8 °F 78% 30.15 in 10.0 mi Calm Calm - N/A   Clear
6:03 AM 46.9 °F 41.5 °F 81% 30.15 in 10.0 mi Calm Calm - N/A   Clear
6:23 AM 46.2 °F 40.8 °F 81% 30.16 in 10.0 mi Calm Calm - N/A   Clear
6:43 AM 46.2 °F 40.8 °F 81% 30.16 in 10.0 mi Calm Calm - N/A   Clear
7:03 AM 45.9 °F 38.7 °F 76% 30.16 in 10.0 mi Calm Calm - N/A   Clear
7:23 AM 46.4 °F 37.6 °F 71% 30.16 in 10.0 mi Calm Calm - N/A   Clear
7:43 AM 49.5 °F 35.1 °F 58% 30.16 in 10.0 mi Calm Calm - N/A   Clear
8:03 AM 51.6 °F 34.0 °F 51% 30.16 in 10.0 mi Calm Calm - N/A   Clear
8:23 AM 52.9 °F 33.4 °F 48% 30.16 in 10.0 mi North 3.5 mph - N/A   Clear
8:43 AM 55.0 °F 32.0 °F 42% 30.16 in 10.0 mi NNE 3.5 mph - N/A   Clear
9:03 AM 56.8 °F 30.6 °F 37% 30.16 in 10.0 mi North 4.6 mph - N/A   Clear
9:23 AM 58.6 °F 28.6 °F 32% 30.16 in 10.0 mi North 8.1 mph - N/A   Clear
9:43 AM 60.3 °F 28.4 °F 30% 30.17 in 10.0 mi North 9.2 mph - N/A   Clear
10:03 AM 60.8 °F 28.6 °F 29% 30.16 in 10.0 mi North 8.1 mph - N/A   Clear
10:23 AM 62.1 °F 29.3 °F 29% 30.16 in 10.0 mi North 6.9 mph - N/A   Clear
10:43 AM 63.1 °F 29.8 °F 29% 30.16 in 10.0 mi Calm Calm - N/A   Clear
11:03 AM 64.2 °F 31.3 °F 29% 30.16 in 10.0 mi NNE 4.6 mph - N/A   Clear
11:23 AM 64.8 °F 31.8 °F 29% 30.15 in 10.0 mi North 4.6 mph - N/A   Clear
11:43 AM 66.2 °F 32.4 °F 28% 30.14 in 10.0 mi North 4.6 mph - N/A   Clear
12:03 PM 66.9 °F 34.3 °F 30% 30.13 in 10.0 mi North 6.9 mph - N/A   Clear
12:23 PM 67.3 °F 34.5 °F 30% 30.12 in 10.0 mi North 4.6 mph - N/A   Clear
12:43 PM 68.7 °F 35.6 °F 30% 30.11 in 10.0 mi North 5.8 mph - N/A   Clear
1:03 PM 69.3 °F 36.5 °F 30% 30.10 in 10.0 mi NNW 5.8 mph - N/A   Clear
1:23 PM 70.7 °F 36.5 °F 29% 30.09 in 10.0 mi North 6.9 mph - N/A   Clear
1:43 PM 71.2 °F 37.2 °F 29% 30.08 in 10.0 mi North 3.5 mph - N/A   Clear
2:03 PM 71.8 °F 37.4 °F 29% 30.07 in 10.0 mi North 8.1 mph - N/A   Clear
2:23 PM 71.6 °F 37.4 °F 29% 30.06 in 10.0 mi NNW 6.9 mph - N/A   Clear
2:43 PM 72.5 °F 37.8 °F 28% 30.05 in 10.0 mi NNW 4.6 mph - N/A   Clear
3:03 PM 72.5 °F 38.3 °F 29% 30.05 in 10.0 mi North 3.5 mph - N/A   Clear
3:23 PM 73.4 °F 38.5 °F 28% 30.04 in 10.0 mi NNW 5.8 mph - N/A   Clear
3:43 PM 73.6 °F 38.7 °F 28% 30.04 in 10.0 mi NNE 9.2 mph - N/A   Clear
4:03 PM 73.4 °F 39.0 °F 29% 30.04 in 10.0 mi North 6.9 mph - N/A   Clear
4:23 PM 73.6 °F 39.4 °F 29% 30.04 in 10.0 mi NNW 8.1 mph - N/A   Clear
4:43 PM 73.0 °F 39.4 °F 30% 30.03 in 10.0 mi NNE 6.9 mph - N/A   Clear
5:03 PM 72.5 °F 39.2 °F 30% 30.03 in 10.0 mi North 6.9 mph - N/A   Clear
5:23 PM 72.1 °F 39.2 °F 30% 30.04 in 10.0 mi NNW 4.6 mph - N/A   Clear
5:43 PM 71.6 °F 40.1 °F 32% 30.04 in 10.0 mi NNW 3.5 mph - N/A   Clear
6:03 PM 70.9 °F 40.6 °F 33% 30.04 in 10.0 mi Calm Calm - N/A   Clear
6:23 PM 68.9 °F 40.6 °F 36% 30.04 in 10.0 mi North 4.6 mph - N/A   Clear
6:43 PM 67.6 °F 41.0 °F 38% 30.05 in 10.0 mi Calm Calm - N/A   Clear
7:03 PM 65.8 °F 42.3 °F 42% 30.05 in 10.0 mi Calm Calm - N/A   Clear
7:23 PM 62.8 °F 43.0 °F 48% 30.05 in 10.0 mi Calm Calm - N/A   Clear
7:43 PM 61.0 °F 43.2 °F 52% 30.05 in 10.0 mi Calm Calm - N/A   Clear
8:03 PM 60.4 °F 44.1 °F 55% 30.04 in 10.0 mi Calm Calm - N/A   Clear
8:23 PM 59.7 °F 45.1 °F 59% 30.04 in 10.0 mi Calm Calm - N/A   Clear
8:43 PM 57.9 °F 45.1 °F 62% 30.05 in 10.0 mi Calm Calm - N/A   Clear
9:03 PM 56.7 °F 45.1 °F 65% 30.05 in 10.0 mi Calm Calm - N/A   Clear
9:43 PM 56.3 °F 46.0 °F 68% 30.07 in 10.0 mi Calm Calm - N/A   Clear
10:03 PM 55.8 °F 46.8 °F 72% 30.07 in 10.0 mi Calm Calm - N/A   Clear
10:23 PM 55.0 °F 46.8 °F 74% 30.06 in 10.0 mi Calm Calm - N/A   Clear
10:43 PM 54.0 °F 46.4 °F 76% 30.06 in 10.0 mi Calm Calm - N/A   Clear
11:03 PM 53.6 °F 46.2 °F 76% 30.07 in 10.0 mi Calm Calm - N/A   Clear
11:23 PM 52.7 °F 45.9 °F 78% 30.06 in 10.0 mi Calm Calm - N/A   Clear
11:43 PM 51.8 °F 45.5 °F 79% 30.05 in 10.0 mi Calm Calm - N/A   Clear